Swords Creek, Virginia
Current Conditions -  °F | °C
As of 1:15 PM on Saturday 22 Nov 2014 (Local Time) from KJFZ Reporting Station
Clear Clear  
Wind Chill: 56°   Ceiling: Unl
Heat Index: 56°   Visibility: 10mi
Dew Point: 18°   Wind: 3mph
Humidity: 22%   Direction: 290°WNW
Pressure: 30.32"   Gusts: NA
Location:  37.04°N, 81.92°W
Report Text: KJFZ 221815Z AUTO 29003KT 10SM CLR 14/M08 A3032 RMK AO2 T01361080
Loading
Personal Weather Stations






























Interactive Weather Map New forecast layout! Learn more

10-Day Weather Forecast

Advertisements
Track Severe Weather on mobile